sensor_id;sensor_type;location;lat;lon;timestamp;temperature;humidity
5415;DHT22;2730;51.512;7.504;2023-05-10T00:00:32;13.80;99.90
5415;DHT22;2730;51.512;7.504;2023-05-10T00:02:59;13.80;99.90
5415;DHT22;2730;51.512;7.504;2023-05-10T00:05:25;13.80;99.90
5415;DHT22;2730;51.512;7.504;2023-05-10T00:07:52;13.80;99.90
5415;DHT22;2730;51.512;7.504;2023-05-10T00:10:19;13.70;99.90
5415;DHT22;2730;51.512;7.504;2023-05-10T00:12:46;13.70;99.90
5415;DHT22;2730;51.512;7.504;2023-05-10T00:15:14;13.70;99.90
5415;DHT22;2730;51.512;7.504;2023-05-10T00:17:41;13.70;99.90
5415;DHT22;2730;51.512;7.504;2023-05-10T00:20:08;13.70;99.90
5415;DHT22;2730;51.512;7.504;2023-05-10T00:22:35;13.70;99.90
5415;DHT22;2730;51.512;7.504;2023-05-10T00:25:02;13.70;99.90
5415;DHT22;2730;51.512;7.504;2023-05-10T00:27:29;13.80;99.90
5415;DHT22;2730;51.512;7.504;2023-05-10T00:29:56;13.70;99.90
5415;DHT22;2730;51.512;7.504;2023-05-10T00:32:24;13.70;99.90
5415;DHT22;2730;51.512;7.504;2023-05-10T00:34:51;13.70;99.90
5415;DHT22;2730;51.512;7.504;2023-05-10T00:37:17;13.60;99.90
5415;DHT22;2730;51.512;7.504;2023-05-10T00:39:44;13.70;99.90
5415;DHT22;2730;51.512;7.504;2023-05-10T00:42:11;13.60;99.90
5415;DHT22;2730;51.512;7.504;2023-05-10T00:44:38;13.60;99.90
5415;DHT22;2730;51.512;7.504;2023-05-10T00:47:04;13.60;99.90
5415;DHT22;2730;51.512;7.504;2023-05-10T00:49:33;13.60;99.90
5415;DHT22;2730;51.512;7.504;2023-05-10T00:52:00;13.60;99.90
5415;DHT22;2730;51.512;7.504;2023-05-10T00:54:28;13.60;99.90
5415;DHT22;2730;51.512;7.504;2023-05-10T00:56:55;13.50;99.90
5415;DHT22;2730;51.512;7.504;2023-05-10T00:59:22;13.60;99.90
5415;DHT22;2730;51.512;7.504;2023-05-10T01:01:50;13.50;99.90
5415;DHT22;2730;51.512;7.504;2023-05-10T01:04:17;13.50;99.90
5415;DHT22;2730;51.512;7.504;2023-05-10T01:06:46;13.60;99.90
5415;DHT22;2730;51.512;7.504;2023-05-10T01:09:13;13.60;99.90
5415;DHT22;2730;51.512;7.504;2023-05-10T01:11:40;13.50;99.90
5415;DHT22;2730;51.512;7.504;2023-05-10T01:14:07;13.50;99.90
5415;DHT22;2730;51.512;7.504;2023-05-10T01:16:37;13.50;99.90
5415;DHT22;2730;51.512;7.504;2023-05-10T01:19:05;13.50;99.90
5415;DHT22;2730;51.512;7.504;2023-05-10T01:21:47;13.40;99.90
5415;DHT22;2730;51.512;7.504;2023-05-10T01:24:40;13.50;99.90
5415;DHT22;2730;51.512;7.504;2023-05-10T01:27:25;13.40;99.90
5415;DHT22;2730;51.512;7.504;2023-05-10T01:30:17;13.40;99.90
5415;DHT22;2730;51.512;7.504;2023-05-10T01:32:54;13.50;99.90
5415;DHT22;2730;51.512;7.504;2023-05-10T01:35:29;13.50;99.90
5415;DHT22;2730;51.512;7.504;2023-05-10T01:38:06;13.50;99.90
5415;DHT22;2730;51.512;7.504;2023-05-10T01:40:39;13.50;99.90
5415;DHT22;2730;51.512;7.504;2023-05-10T01:43:13;13.50;99.90
5415;DHT22;2730;51.512;7.504;2023-05-10T01:45:49;13.50;99.90
5415;DHT22;2730;51.512;7.504;2023-05-10T01:48:19;13.50;99.90
5415;DHT22;2730;51.512;7.504;2023-05-10T01:50:48;13.60;99.90
5415;DHT22;2730;51.512;7.504;2023-05-10T01:53:18;13.60;99.90
5415;DHT22;2730;51.512;7.504;2023-05-10T01:55:48;13.50;99.90
5415;DHT22;2730;51.512;7.504;2023-05-10T01:58:20;13.50;99.90
5415;DHT22;2730;51.512;7.504;2023-05-10T02:00:48;13.60;99.90
5415;DHT22;2730;51.512;7.504;2023-05-10T02:03:18;13.60;99.90
5415;DHT22;2730;51.512;7.504;2023-05-10T02:05:47;13.60;99.90
5415;DHT22;2730;51.512;7.504;2023-05-10T02:08:16;13.60;99.90
5415;DHT22;2730;51.512;7.504;2023-05-10T02:10:45;13.50;99.90
5415;DHT22;2730;51.512;7.504;2023-05-10T02:13:14;13.60;99.90
5415;DHT22;2730;51.512;7.504;2023-05-10T02:15:43;13.50;99.90
5415;DHT22;2730;51.512;7.504;2023-05-10T02:18:11;13.60;99.90
5415;DHT22;2730;51.512;7.504;2023-05-10T02:20:39;13.60;99.90
5415;DHT22;2730;51.512;7.504;2023-05-10T02:23:07;13.60;99.90
5415;DHT22;2730;51.512;7.504;2023-05-10T02:25:36;13.50;99.90
5415;DHT22;2730;51.512;7.504;2023-05-10T02:28:05;13.40;99.90
5415;DHT22;2730;51.512;7.504;2023-05-10T02:30:33;13.30;99.90
5415;DHT22;2730;51.512;7.504;2023-05-10T02:33:01;13.20;99.90
5415;DHT22;2730;51.512;7.504;2023-05-10T02:35:30;13.20;99.90
5415;DHT22;2730;51.512;7.504;2023-05-10T02:38:00;13.20;99.90
5415;DHT22;2730;51.512;7.504;2023-05-10T02:40:28;13.10;99.90
5415;DHT22;2730;51.512;7.504;2023-05-10T02:42:56;13.00;99.90
5415;DHT22;2730;51.512;7.504;2023-05-10T02:45:27;13.00;99.90
5415;DHT22;2730;51.512;7.504;2023-05-10T02:47:54;13.00;99.90
5415;DHT22;2730;51.512;7.504;2023-05-10T02:50:22;13.00;99.90
5415;DHT22;2730;51.512;7.504;2023-05-10T02:52:55;13.00;99.90
5415;DHT22;2730;51.512;7.504;2023-05-10T02:55:26;13.00;99.90
5415;DHT22;2730;51.512;7.504;2023-05-10T02:57:59;13.00;99.90
5415;DHT22;2730;51.512;7.504;2023-05-10T03:00:27;12.90;99.90
5415;DHT22;2730;51.512;7.504;2023-05-10T03:02:54;12.90;99.90
5415;DHT22;2730;51.512;7.504;2023-05-10T03:05:21;12.80;99.90
5415;DHT22;2730;51.512;7.504;2023-05-10T03:07:48;12.70;99.90
5415;DHT22;2730;51.512;7.504;2023-05-10T03:10:15;12.70;99.90
5415;DHT22;2730;51.512;7.504;2023-05-10T03:12:52;12.70;99.90
5415;DHT22;2730;51.512;7.504;2023-05-10T03:15:28;12.70;99.90
5415;DHT22;2730;51.512;7.504;2023-05-10T03:18:03;12.70;99.90
5415;DHT22;2730;51.512;7.504;2023-05-10T03:20:35;12.70;99.90
5415;DHT22;2730;51.512;7.504;2023-05-10T03:23:07;12.70;99.90
5415;DHT22;2730;51.512;7.504;2023-05-10T03:25:36;12.70;99.90
5415;DHT22;2730;51.512;7.504;2023-05-10T03:28:05;12.70;99.90
5415;DHT22;2730;51.512;7.504;2023-05-10T03:30:33;12.70;99.90
5415;DHT22;2730;51.512;7.504;2023-05-10T03:33:04;12.70;99.90
5415;DHT22;2730;51.512;7.504;2023-05-10T03:35:32;12.70;99.90
5415;DHT22;2730;51.512;7.504;2023-05-10T03:37:58;12.70;99.90
5415;DHT22;2730;51.512;7.504;2023-05-10T03:40:26;12.70;99.90
5415;DHT22;2730;51.512;7.504;2023-05-10T03:42:54;12.70;99.90
5415;DHT22;2730;51.512;7.504;2023-05-10T03:45:22;12.70;99.90
5415;DHT22;2730;51.512;7.504;2023-05-10T03:47:49;12.70;99.90
5415;DHT22;2730;51.512;7.504;2023-05-10T03:50:16;12.70;99.90
5415;DHT22;2730;51.512;7.504;2023-05-10T03:52:43;12.70;99.90
5415;DHT22;2730;51.512;7.504;2023-05-10T03:55:10;12.70;99.90
5415;DHT22;2730;51.512;7.504;2023-05-10T03:57:37;12.70;99.90
5415;DHT22;2730;51.512;7.504;2023-05-10T04:00:04;12.70;99.90
5415;DHT22;2730;51.512;7.504;2023-05-10T04:02:33;12.70;99.90
5415;DHT22;2730;51.512;7.504;2023-05-10T04:05:00;12.70;99.90
5415;DHT22;2730;51.512;7.504;2023-05-10T04:07:26;12.90;99.90
5415;DHT22;2730;51.512;7.504;2023-05-10T04:09:53;12.90;99.90
5415;DHT22;2730;51.512;7.504;2023-05-10T04:12:20;12.80;99.90
5415;DHT22;2730;51.512;7.504;2023-05-10T04:14:46;12.80;99.90
5415;DHT22;2730;51.512;7.504;2023-05-10T04:17:13;12.90;99.90
5415;DHT22;2730;51.512;7.504;2023-05-10T04:19:41;12.90;99.90
5415;DHT22;2730;51.512;7.504;2023-05-10T04:22:08;12.90;99.90
5415;DHT22;2730;51.512;7.504;2023-05-10T04:24:35;13.00;99.90
5415;DHT22;2730;51.512;7.504;2023-05-10T04:27:02;12.90;99.90
5415;DHT22;2730;51.512;7.504;2023-05-10T04:29:29;13.00;99.90
5415;DHT22;2730;51.512;7.504;2023-05-10T04:31:55;13.00;99.90
5415;DHT22;2730;51.512;7.504;2023-05-10T04:34:23;13.00;99.90
5415;DHT22;2730;51.512;7.504;2023-05-10T04:36:51;13.00;99.90
5415;DHT22;2730;51.512;7.504;2023-05-10T04:39:18;13.00;99.90
5415;DHT22;2730;51.512;7.504;2023-05-10T04:41:44;13.00;99.90
5415;DHT22;2730;51.512;7.504;2023-05-10T04:44:11;13.00;99.90
5415;DHT22;2730;51.512;7.504;2023-05-10T04:46:38;13.00;99.90
5415;DHT22;2730;51.512;7.504;2023-05-10T04:49:04;13.00;99.90
5415;DHT22;2730;51.512;7.504;2023-05-10T04:51:31;13.10;99.90
5415;DHT22;2730;51.512;7.504;2023-05-10T04:53:59;13.00;99.90
5415;DHT22;2730;51.512;7.504;2023-05-10T04:56:26;13.00;99.90
5415;DHT22;2730;51.512;7.504;2023-05-10T04:58:53;13.00;99.90
5415;DHT22;2730;51.512;7.504;2023-05-10T05:01:20;13.00;99.90
5415;DHT22;2730;51.512;7.504;2023-05-10T05:03:46;13.00;99.90
5415;DHT22;2730;51.512;7.504;2023-05-10T05:06:13;13.00;99.90
5415;DHT22;2730;51.512;7.504;2023-05-10T05:08:40;13.00;99.90
5415;DHT22;2730;51.512;7.504;2023-05-10T05:11:08;13.00;99.90
5415;DHT22;2730;51.512;7.504;2023-05-10T05:13:35;13.00;99.90
5415;DHT22;2730;51.512;7.504;2023-05-10T05:16:01;13.00;99.90
5415;DHT22;2730;51.512;7.504;2023-05-10T05:18:29;13.00;99.90
5415;DHT22;2730;51.512;7.504;2023-05-10T05:20:56;13.10;99.90
5415;DHT22;2730;51.512;7.504;2023-05-10T05:23:23;13.10;99.90
5415;DHT22;2730;51.512;7.504;2023-05-10T05:25:51;13.20;99.90
5415;DHT22;2730;51.512;7.504;2023-05-10T05:28:20;13.40;99.90
5415;DHT22;2730;51.512;7.504;2023-05-10T05:30:47;13.40;99.90
5415;DHT22;2730;51.512;7.504;2023-05-10T05:33:14;13.40;99.90
5415;DHT22;2730;51.512;7.504;2023-05-10T05:35:41;13.50;99.90
5415;DHT22;2730;51.512;7.504;2023-05-10T05:38:12;13.50;99.90
5415;DHT22;2730;51.512;7.504;2023-05-10T05:40:39;13.40;99.90
5415;DHT22;2730;51.512;7.504;2023-05-10T05:43:07;13.50;99.90
5415;DHT22;2730;51.512;7.504;2023-05-10T05:45:35;13.50;99.90
5415;DHT22;2730;51.512;7.504;2023-05-10T05:48:02;13.60;99.90
5415;DHT22;2730;51.512;7.504;2023-05-10T05:50:29;13.60;99.90
5415;DHT22;2730;51.512;7.504;2023-05-10T05:52:56;13.60;99.90
5415;DHT22;2730;51.512;7.504;2023-05-10T05:55:23;13.60;99.90
5415;DHT22;2730;51.512;7.504;2023-05-10T05:57:51;13.60;99.90
5415;DHT22;2730;51.512;7.504;2023-05-10T06:00:18;13.60;99.90
5415;DHT22;2730;51.512;7.504;2023-05-10T06:02:46;13.70;99.90
5415;DHT22;2730;51.512;7.504;2023-05-10T06:05:13;13.90;99.90
5415;DHT22;2730;51.512;7.504;2023-05-10T06:07:40;14.00;99.90
5415;DHT22;2730;51.512;7.504;2023-05-10T06:10:07;14.00;99.90
5415;DHT22;2730;51.512;7.504;2023-05-10T06:12:34;14.00;99.90
5415;DHT22;2730;51.512;7.504;2023-05-10T06:15:01;14.00;99.90
5415;DHT22;2730;51.512;7.504;2023-05-10T06:17:28;14.20;99.90
5415;DHT22;2730;51.512;7.504;2023-05-10T06:19:56;14.30;99.90
5415;DHT22;2730;51.512;7.504;2023-05-10T06:22:23;14.30;99.90
5415;DHT22;2730;51.512;7.504;2023-05-10T06:24:50;14.40;99.90
5415;DHT22;2730;51.512;7.504;2023-05-10T06:27:17;14.40;99.90
5415;DHT22;2730;51.512;7.504;2023-05-10T06:29:43;14.50;99.90
5415;DHT22;2730;51.512;7.504;2023-05-10T06:32:10;14.60;99.90
5415;DHT22;2730;51.512;7.504;2023-05-10T06:34:37;14.60;99.90
5415;DHT22;2730;51.512;7.504;2023-05-10T06:37:05;14.60;99.90
5415;DHT22;2730;51.512;7.504;2023-05-10T06:39:32;14.60;99.90
5415;DHT22;2730;51.512;7.504;2023-05-10T06:41:58;14.70;99.90
5415;DHT22;2730;51.512;7.504;2023-05-10T06:44:27;14.70;99.90
5415;DHT22;2730;51.512;7.504;2023-05-10T06:46:53;14.80;99.90
5415;DHT22;2730;51.512;7.504;2023-05-10T06:49:21;14.60;99.90
5415;DHT22;2730;51.512;7.504;2023-05-10T06:51:48;14.50;99.90
5415;DHT22;2730;51.512;7.504;2023-05-10T06:54:16;14.40;99.90
5415;DHT22;2730;51.512;7.504;2023-05-10T06:56:43;14.50;99.90
5415;DHT22;2730;51.512;7.504;2023-05-10T06:59:09;14.50;99.90
5415;DHT22;2730;51.512;7.504;2023-05-10T07:01:37;14.50;99.90
5415;DHT22;2730;51.512;7.504;2023-05-10T07:04:04;14.50;99.90
5415;DHT22;2730;51.512;7.504;2023-05-10T07:06:32;14.50;99.90
5415;DHT22;2730;51.512;7.504;2023-05-10T07:08:59;14.50;99.90
5415;DHT22;2730;51.512;7.504;2023-05-10T07:11:28;14.50;99.90
5415;DHT22;2730;51.512;7.504;2023-05-10T07:13:55;14.60;99.90
5415;DHT22;2730;51.512;7.504;2023-05-10T07:16:21;14.70;99.90
5415;DHT22;2730;51.512;7.504;2023-05-10T07:18:48;14.70;99.90
5415;DHT22;2730;51.512;7.504;2023-05-10T07:21:15;14.80;99.90
5415;DHT22;2730;51.512;7.504;2023-05-10T07:23:42;14.90;99.90
5415;DHT22;2730;51.512;7.504;2023-05-10T07:26:09;15.30;99.90
5415;DHT22;2730;51.512;7.504;2023-05-10T07:28:37;15.60;99.90
5415;DHT22;2730;51.512;7.504;2023-05-10T07:31:04;16.00;99.90
5415;DHT22;2730;51.512;7.504;2023-05-10T07:33:31;16.10;99.90
5415;DHT22;2730;51.512;7.504;2023-05-10T07:35:58;16.40;99.90
5415;DHT22;2730;51.512;7.504;2023-05-10T07:38:24;16.60;99.90
5415;DHT22;2730;51.512;7.504;2023-05-10T07:40:51;16.90;99.90
5415;DHT22;2730;51.512;7.504;2023-05-10T07:43:18;17.30;99.90
5415;DHT22;2730;51.512;7.504;2023-05-10T07:45:46;18.60;99.90
5415;DHT22;2730;51.512;7.504;2023-05-10T07:48:13;18.50;99.90
5415;DHT22;2730;51.512;7.504;2023-05-10T07:50:39;18.20;99.90
5415;DHT22;2730;51.512;7.504;2023-05-10T07:53:06;18.00;99.90
5415;DHT22;2730;51.512;7.504;2023-05-10T07:55:33;17.80;99.90
5415;DHT22;2730;51.512;7.504;2023-05-10T07:58:00;17.70;99.90
5415;DHT22;2730;51.512;7.504;2023-05-10T08:00:27;17.40;99.90
5415;DHT22;2730;51.512;7.504;2023-05-10T08:02:55;17.10;99.90
5415;DHT22;2730;51.512;7.504;2023-05-10T08:05:22;17.00;99.90
5415;DHT22;2730;51.512;7.504;2023-05-10T08:07:49;16.80;99.90
5415;DHT22;2730;51.512;7.504;2023-05-10T08:10:15;16.50;99.90
5415;DHT22;2730;51.512;7.504;2023-05-10T08:12:42;16.30;99.90
5415;DHT22;2730;51.512;7.504;2023-05-10T08:15:10;16.20;99.90
5415;DHT22;2730;51.512;7.504;2023-05-10T08:17:37;16.20;99.90
5415;DHT22;2730;51.512;7.504;2023-05-10T08:20:06;16.30;99.90
5415;DHT22;2730;51.512;7.504;2023-05-10T08:22:33;16.40;99.90
5415;DHT22;2730;51.512;7.504;2023-05-10T08:24:59;16.70;99.90
5415;DHT22;2730;51.512;7.504;2023-05-10T08:27:26;16.80;99.90
5415;DHT22;2730;51.512;7.504;2023-05-10T08:29:53;16.90;99.90
5415;DHT22;2730;51.512;7.504;2023-05-10T08:32:20;16.90;99.90
5415;DHT22;2730;51.512;7.504;2023-05-10T08:34:46;17.10;99.90
5415;DHT22;2730;51.512;7.504;2023-05-10T08:37:15;18.10;99.90
5415;DHT22;2730;51.512;7.504;2023-05-10T08:39:42;19.10;23.70
5415;DHT22;2730;51.512;7.504;2023-05-10T08:42:09;19.30;1.00
5415;DHT22;2730;51.512;7.504;2023-05-10T08:44:36;19.10;1.00
5415;DHT22;2730;51.512;7.504;2023-05-10T08:47:05;18.90;10.50
5415;DHT22;2730;51.512;7.504;2023-05-10T08:49:33;18.80;34.30
5415;DHT22;2730;51.512;7.504;2023-05-10T08:52:03;18.70;28.00
5415;DHT22;2730;51.512;7.504;2023-05-10T08:54:33;18.60;1.60
5415;DHT22;2730;51.512;7.504;2023-05-10T08:57:01;18.30;1.00
5415;DHT22;2730;51.512;7.504;2023-05-10T08:59:29;18.40;17.60
5415;DHT22;2730;51.512;7.504;2023-05-10T09:01:57;18.30;21.10
5415;DHT22;2730;51.512;7.504;2023-05-10T09:04:24;18.20;9.30
5415;DHT22;2730;51.512;7.504;2023-05-10T09:06:51;17.90;90.00
5415;DHT22;2730;51.512;7.504;2023-05-10T09:09:19;17.60;99.90
5415;DHT22;2730;51.512;7.504;2023-05-10T09:11:48;17.50;99.90
5415;DHT22;2730;51.512;7.504;2023-05-10T09:14:15;17.40;99.90
5415;DHT22;2730;51.512;7.504;2023-05-10T09:16:42;17.50;99.90
5415;DHT22;2730;51.512;7.504;2023-05-10T09:19:10;18.00;43.50
5415;DHT22;2730;51.512;7.504;2023-05-10T09:21:37;18.20;1.40
5415;DHT22;2730;51.512;7.504;2023-05-10T09:24:05;18.40;1.00
5415;DHT22;2730;51.512;7.504;2023-05-10T09:26:32;18.60;1.00
5415;DHT22;2730;51.512;7.504;2023-05-10T09:29:02;18.60;1.00
5415;DHT22;2730;51.512;7.504;2023-05-10T09:31:46;18.50;1.00
5415;DHT22;2730;51.512;7.504;2023-05-10T09:34:17;18.70;1.00
5415;DHT22;2730;51.512;7.504;2023-05-10T09:36:51;19.00;1.00
5415;DHT22;2730;51.512;7.504;2023-05-10T09:39:18;18.80;1.00
5415;DHT22;2730;51.512;7.504;2023-05-10T09:41:45;18.90;1.00
5415;DHT22;2730;51.512;7.504;2023-05-10T09:44:16;18.80;1.00
5415;DHT22;2730;51.512;7.504;2023-05-10T09:46:49;19.10;1.00
5415;DHT22;2730;51.512;7.504;2023-05-10T09:49:16;19.60;99.90
5415;DHT22;2730;51.512;7.504;2023-05-10T09:51:42;19.70;99.90
5415;DHT22;2730;51.512;7.504;2023-05-10T09:54:11;19.50;1.00
5415;DHT22;2730;51.512;7.504;2023-05-10T09:56:38;19.70;53.00
5415;DHT22;2730;51.512;7.504;2023-05-10T09:59:07;20.00;1.00
5415;DHT22;2730;51.512;7.504;2023-05-10T10:01:35;20.00;1.00
5415;DHT22;2730;51.512;7.504;2023-05-10T10:04:03;20.10;99.90
5415;DHT22;2730;51.512;7.504;2023-05-10T10:06:35;19.70;97.20
5415;DHT22;2730;51.512;7.504;2023-05-10T10:09:02;19.40;1.00
5415;DHT22;2730;51.512;7.504;2023-05-10T10:11:29;19.70;99.90
5415;DHT22;2730;51.512;7.504;2023-05-10T10:13:56;20.00;98.30
5415;DHT22;2730;51.512;7.504;2023-05-10T10:16:23;20.10;1.00
5415;DHT22;2730;51.512;7.504;2023-05-10T10:18:52;20.20;1.00
5415;DHT22;2730;51.512;7.504;2023-05-10T10:21:19;20.40;1.00
5415;DHT22;2730;51.512;7.504;2023-05-10T10:23:46;20.40;1.00
5415;DHT22;2730;51.512;7.504;2023-05-10T10:26:13;20.40;1.00
5415;DHT22;2730;51.512;7.504;2023-05-10T10:28:47;20.00;1.00
5415;DHT22;2730;51.512;7.504;2023-05-10T10:31:24;19.80;1.00
5415;DHT22;2730;51.512;7.504;2023-05-10T10:34:05;19.50;99.90
5415;DHT22;2730;51.512;7.504;2023-05-10T10:36:32;20.00;99.90
5415;DHT22;2730;51.512;7.504;2023-05-10T10:39:09;19.60;1.00
5415;DHT22;2730;51.512;7.504;2023-05-10T10:41:38;19.30;99.90
5415;DHT22;2730;51.512;7.504;2023-05-10T10:44:37;19.30;99.90
5415;DHT22;2730;51.512;7.504;2023-05-10T10:47:06;19.50;99.90
5415;DHT22;2730;51.512;7.504;2023-05-10T10:49:48;19.70;1.00
5415;DHT22;2730;51.512;7.504;2023-05-10T10:52:22;19.70;80.70
5415;DHT22;2730;51.512;7.504;2023-05-10T10:54:53;19.70;1.00
5415;DHT22;2730;51.512;7.504;2023-05-10T10:57:23;19.90;15.80
5415;DHT22;2730;51.512;7.504;2023-05-10T11:00:18;20.10;1.00
5415;DHT22;2730;51.512;7.504;2023-05-10T11:02:45;19.80;99.90
5415;DHT22;2730;51.512;7.504;2023-05-10T11:05:27;20.10;99.90
5415;DHT22;2730;51.512;7.504;2023-05-10T11:08:00;20.40;99.90
5415;DHT22;2730;51.512;7.504;2023-05-10T11:10:27;20.10;2.70
5415;DHT22;2730;51.512;7.504;2023-05-10T11:12:59;20.10;1.00
5415;DHT22;2730;51.512;7.504;2023-05-10T11:15:29;20.50;1.00
5415;DHT22;2730;51.512;7.504;2023-05-10T11:17:56;20.60;99.90
5415;DHT22;2730;51.512;7.504;2023-05-10T11:20:27;20.70;66.60
5415;DHT22;2730;51.512;7.504;2023-05-10T11:23:11;21.10;99.90
5415;DHT22;2730;51.512;7.504;2023-05-10T11:25:42;20.70;1.00
5415;DHT22;2730;51.512;7.504;2023-05-10T11:28:10;20.70;1.00
5415;DHT22;2730;51.512;7.504;2023-05-10T11:30:38;20.50;99.90
5415;DHT22;2730;51.512;7.504;2023-05-10T11:33:06;20.40;99.90
5415;DHT22;2730;51.512;7.504;2023-05-10T11:35:39;20.40;99.90
5415;DHT22;2730;51.512;7.504;2023-05-10T11:38:07;20.40;99.90
5415;DHT22;2730;51.512;7.504;2023-05-10T11:40:34;20.40;99.90
5415;DHT22;2730;51.512;7.504;2023-05-10T11:43:01;20.50;1.00
5415;DHT22;2730;51.512;7.504;2023-05-10T11:45:28;20.30;99.90
5415;DHT22;2730;51.512;7.504;2023-05-10T11:47:57;19.90;99.90
5415;DHT22;2730;51.512;7.504;2023-05-10T11:50:24;19.80;1.00
5415;DHT22;2730;51.512;7.504;2023-05-10T11:52:53;19.30;99.90
5415;DHT22;2730;51.512;7.504;2023-05-10T11:55:20;19.10;1.00
5415;DHT22;2730;51.512;7.504;2023-05-10T11:57:48;19.40;99.90
5415;DHT22;2730;51.512;7.504;2023-05-10T12:00:17;19.50;99.90
5415;DHT22;2730;51.512;7.504;2023-05-10T12:02:45;19.80;99.90
5415;DHT22;2730;51.512;7.504;2023-05-10T12:05:12;19.70;99.90
5415;DHT22;2730;51.512;7.504;2023-05-10T12:07:39;19.60;1.00
5415;DHT22;2730;51.512;7.504;2023-05-10T12:10:08;19.30;1.00
5415;DHT22;2730;51.512;7.504;2023-05-10T12:12:39;19.10;99.90
5415;DHT22;2730;51.512;7.504;2023-05-10T12:15:11;19.00;99.90
5415;DHT22;2730;51.512;7.504;2023-05-10T12:17:38;19.00;1.00
5415;DHT22;2730;51.512;7.504;2023-05-10T12:20:16;19.10;1.00
5415;DHT22;2730;51.512;7.504;2023-05-10T12:22:47;19.10;29.20
5415;DHT22;2730;51.512;7.504;2023-05-10T12:25:17;19.20;99.90
5415;DHT22;2730;51.512;7.504;2023-05-10T12:27:54;19.30;99.90
5415;DHT22;2730;51.512;7.504;2023-05-10T12:30:22;19.30;1.00
5415;DHT22;2730;51.512;7.504;2023-05-10T12:32:50;19.30;99.90
5415;DHT22;2730;51.512;7.504;2023-05-10T12:35:17;19.20;99.90
5415;DHT22;2730;51.512;7.504;2023-05-10T12:37:46;18.90;99.90
5415;DHT22;2730;51.512;7.504;2023-05-10T12:40:13;19.00;99.90
5415;DHT22;2730;51.512;7.504;2023-05-10T12:42:41;18.90;1.00
5415;DHT22;2730;51.512;7.504;2023-05-10T12:45:11;18.90;1.00
5415;DHT22;2730;51.512;7.504;2023-05-10T12:47:38;18.80;99.90
5415;DHT22;2730;51.512;7.504;2023-05-10T12:50:06;18.60;99.90
5415;DHT22;2730;51.512;7.504;2023-05-10T12:52:33;18.60;99.90
5415;DHT22;2730;51.512;7.504;2023-05-10T12:55:00;18.40;1.00
5415;DHT22;2730;51.512;7.504;2023-05-10T12:57:27;18.70;99.90
5415;DHT22;2730;51.512;7.504;2023-05-10T12:59:55;19.20;99.90
5415;DHT22;2730;51.512;7.504;2023-05-10T13:02:22;19.40;1.00
5415;DHT22;2730;51.512;7.504;2023-05-10T13:04:49;19.40;1.00
5415;DHT22;2730;51.512;7.504;2023-05-10T13:07:16;19.50;91.80
5415;DHT22;2730;51.512;7.504;2023-05-10T13:09:43;19.70;99.90
5415;DHT22;2730;51.512;7.504;2023-05-10T13:12:10;19.50;99.90
5415;DHT22;2730;51.512;7.504;2023-05-10T13:14:36;19.10;99.90
5415;DHT22;2730;51.512;7.504;2023-05-10T13:17:07;19.20;1.00
5415;DHT22;2730;51.512;7.504;2023-05-10T13:19:34;19.20;1.00
5415;DHT22;2730;51.512;7.504;2023-05-10T13:22:01;19.30;13.00
5415;DHT22;2730;51.512;7.504;2023-05-10T13:24:27;19.40;1.00
5415;DHT22;2730;51.512;7.504;2023-05-10T13:26:54;19.60;1.00
5415;DHT22;2730;51.512;7.504;2023-05-10T13:29:21;19.50;99.90
5415;DHT22;2730;51.512;7.504;2023-05-10T13:31:48;19.70;45.30
5415;DHT22;2730;51.512;7.504;2023-05-10T13:34:16;19.60;1.00
5415;DHT22;2730;51.512;7.504;2023-05-10T13:36:46;19.50;99.90
5415;DHT22;2730;51.512;7.504;2023-05-10T13:39:12;19.50;1.00
5415;DHT22;2730;51.512;7.504;2023-05-10T13:41:39;19.60;99.90
5415;DHT22;2730;51.512;7.504;2023-05-10T13:44:06;19.60;1.00
5415;DHT22;2730;51.512;7.504;2023-05-10T13:46:33;19.60;99.90
5415;DHT22;2730;51.512;7.504;2023-05-10T13:49:00;19.50;99.90
5415;DHT22;2730;51.512;7.504;2023-05-10T13:51:28;19.60;1.60
5415;DHT22;2730;51.512;7.504;2023-05-10T13:53:57;19.10;99.90
5415;DHT22;2730;51.512;7.504;2023-05-10T13:56:23;19.20;99.90
5415;DHT22;2730;51.512;7.504;2023-05-10T13:58:50;19.20;1.00
5415;DHT22;2730;51.512;7.504;2023-05-10T14:01:17;19.20;99.90
5415;DHT22;2730;51.512;7.504;2023-05-10T14:03:44;19.20;99.90
5415;DHT22;2730;51.512;7.504;2023-05-10T14:06:11;19.40;99.90
5415;DHT22;2730;51.512;7.504;2023-05-10T14:08:39;19.30;1.00
5415;DHT22;2730;51.512;7.504;2023-05-10T14:11:06;19.00;1.00
5415;DHT22;2730;51.512;7.504;2023-05-10T14:13:33;19.00;1.00
5415;DHT22;2730;51.512;7.504;2023-05-10T14:16:01;19.00;99.90
5415;DHT22;2730;51.512;7.504;2023-05-10T14:18:27;19.10;99.90
5415;DHT22;2730;51.512;7.504;2023-05-10T14:20:54;19.30;99.90
5415;DHT22;2730;51.512;7.504;2023-05-10T14:23:22;19.20;1.00
5415;DHT22;2730;51.512;7.504;2023-05-10T14:25:52;19.20;1.00
5415;DHT22;2730;51.512;7.504;2023-05-10T14:28:18;19.40;99.90
5415;DHT22;2730;51.512;7.504;2023-05-10T14:30:46;19.60;1.00
5415;DHT22;2730;51.512;7.504;2023-05-10T14:33:13;19.70;1.00
5415;DHT22;2730;51.512;7.504;2023-05-10T14:35:40;19.60;99.90
5415;DHT22;2730;51.512;7.504;2023-05-10T14:38:06;19.60;99.90
5415;DHT22;2730;51.512;7.504;2023-05-10T14:40:33;19.60;99.90
5415;DHT22;2730;51.512;7.504;2023-05-10T14:43:01;19.50;1.00
5415;DHT22;2730;51.512;7.504;2023-05-10T14:45:28;19.60;99.90
5415;DHT22;2730;51.512;7.504;2023-05-10T14:47:55;19.80;99.90
5415;DHT22;2730;51.512;7.504;2023-05-10T14:50:22;19.60;99.90
5415;DHT22;2730;51.512;7.504;2023-05-10T14:52:49;19.80;99.90
5415;DHT22;2730;51.512;7.504;2023-05-10T14:55:16;19.80;99.90
5415;DHT22;2730;51.512;7.504;2023-05-10T14:57:43;19.70;1.00
5415;DHT22;2730;51.512;7.504;2023-05-10T15:00:15;19.70;6.20
5415;DHT22;2730;51.512;7.504;2023-05-10T15:02:42;19.60;1.00
5415;DHT22;2730;51.512;7.504;2023-05-10T15:05:08;19.70;1.00
5415;DHT22;2730;51.512;7.504;2023-05-10T15:07:35;19.50;99.90
5415;DHT22;2730;51.512;7.504;2023-05-10T15:10:03;19.60;79.40
5415;DHT22;2730;51.512;7.504;2023-05-10T15:12:30;19.80;1.00
5415;DHT22;2730;51.512;7.504;2023-05-10T15:14:57;20.10;1.00
5415;DHT22;2730;51.512;7.504;2023-05-10T15:17:25;20.10;1.00
5415;DHT22;2730;51.512;7.504;2023-05-10T15:19:52;20.00;1.00
5415;DHT22;2730;51.512;7.504;2023-05-10T15:22:19;20.00;99.90
5415;DHT22;2730;51.512;7.504;2023-05-10T15:24:46;19.90;1.00
5415;DHT22;2730;51.512;7.504;2023-05-10T15:27:13;19.90;99.90
5415;DHT22;2730;51.512;7.504;2023-05-10T15:29:40;20.00;1.00
5415;DHT22;2730;51.512;7.504;2023-05-10T15:32:07;19.90;1.00
5415;DHT22;2730;51.512;7.504;2023-05-10T15:34:35;19.60;1.00
5415;DHT22;2730;51.512;7.504;2023-05-10T15:37:02;19.80;99.90
5415;DHT22;2730;51.512;7.504;2023-05-10T15:39:29;19.90;1.00
5415;DHT22;2730;51.512;7.504;2023-05-10T15:41:56;19.70;1.00
5415;DHT22;2730;51.512;7.504;2023-05-10T15:44:23;19.40;1.00
5415;DHT22;2730;51.512;7.504;2023-05-10T15:46:49;19.30;99.90
5415;DHT22;2730;51.512;7.504;2023-05-10T15:49:17;19.10;99.90
5415;DHT22;2730;51.512;7.504;2023-05-10T15:51:45;19.00;1.00
5415;DHT22;2730;51.512;7.504;2023-05-10T15:54:12;19.00;1.00
5415;DHT22;2730;51.512;7.504;2023-05-10T15:56:39;18.90;1.00
5415;DHT22;2730;51.512;7.504;2023-05-10T15:59:05;19.20;1.00
5415;DHT22;2730;51.512;7.504;2023-05-10T16:01:33;19.30;99.90
5415;DHT22;2730;51.512;7.504;2023-05-10T16:04:00;19.40;99.90
5415;DHT22;2730;51.512;7.504;2023-05-10T16:06:27;19.30;99.90
5415;DHT22;2730;51.512;7.504;2023-05-10T16:08:55;19.20;1.00
5415;DHT22;2730;51.512;7.504;2023-05-10T16:11:22;19.10;99.90